Washington Executive test (W32)
Clinton, MD
Field Elevation: 249
Lat: 38°44.89N  Long: 76°55.97W
CTAF/Unicom Freq: 122.8000
Weather Advisories
2016-10-24   21:45 Z
Altimeter 30.12" Hg
Wind 335° @ 7 KT
Gusts 13 KT
Temperature 18° C (64° F)
Dewpoint -99° C (-146° F)
Relative Humidity 0%
Density Altitude 445 feet
Condensation Altitude 13,382 feet
Wind and Runways
Indicated Runway = 05
Headwind = 2 kt
Crosswind = 7 kt
More Info
All DigiWx sites map
Weather Radar
NOAA Forecast
Airport IQ 5010
(HMIEM) Shock Trauma Ctr
(26N) Ocean City
about DigiWx
FAA Disclaimer: The data displayed is for advisory purposes only and is not to be used for flight planning or operations. For official data, please call (not available) to hear the current automated AWOS voice message.
  METAR W32 242145Z AUTO 34007G13KT 18/M99 A3012